sensor_id;sensor_type;location;lat;lon;timestamp;pressure;altitude;pressure_sealevel;temperature;humidity
81499;BME280;70904;52.360;5.198;2023-06-26T00:01:29;101257.75;;;23.37;55.99
81499;BME280;70904;52.360;5.198;2023-06-26T00:03:55;101258.44;;;23.34;56.09
81499;BME280;70904;52.360;5.198;2023-06-26T00:06:20;101261.34;;;23.29;56.45
81499;BME280;70904;52.360;5.198;2023-06-26T00:08:46;101258.47;;;23.25;56.79
81499;BME280;70904;52.360;5.198;2023-06-26T00:11:11;101254.13;;;23.16;57.48
81499;BME280;70904;52.360;5.198;2023-06-26T00:13:36;101257.72;;;23.08;57.78
81499;BME280;70904;52.360;5.198;2023-06-26T00:16:02;101262.25;;;23.12;57.06
81499;BME280;70904;52.360;5.198;2023-06-26T00:18:28;101256.25;;;23.10;57.64
81499;BME280;70904;52.360;5.198;2023-06-26T00:20:54;101249.63;;;23.02;58.08
81499;BME280;70904;52.360;5.198;2023-06-26T00:23:19;101240.03;;;23.00;57.89
81499;BME280;70904;52.360;5.198;2023-06-26T00:25:44;101244.25;;;22.97;58.09
81499;BME280;70904;52.360;5.198;2023-06-26T00:28:10;101245.75;;;22.86;58.91
81499;BME280;70904;52.360;5.198;2023-06-26T00:30:35;101246.41;;;22.83;59.24
81499;BME280;70904;52.360;5.198;2023-06-26T00:33:01;101246.28;;;22.71;59.89
81499;BME280;70904;52.360;5.198;2023-06-26T00:35:26;101241.06;;;22.78;59.42
81499;BME280;70904;52.360;5.198;2023-06-26T00:37:52;101230.72;;;22.66;60.13
81499;BME280;70904;52.360;5.198;2023-06-26T00:40:17;101232.03;;;22.60;60.64
81499;BME280;70904;52.360;5.198;2023-06-26T00:42:43;101239.00;;;22.57;60.78
81499;BME280;70904;52.360;5.198;2023-06-26T00:45:08;101237.09;;;22.49;61.13
81499;BME280;70904;52.360;5.198;2023-06-26T00:47:33;101241.00;;;22.39;61.67
81499;BME280;70904;52.360;5.198;2023-06-26T00:49:59;101245.84;;;22.34;61.71
81499;BME280;70904;52.360;5.198;2023-06-26T00:52:25;101246.03;;;22.29;61.46
81499;BME280;70904;52.360;5.198;2023-06-26T00:54:50;101247.00;;;22.24;61.71
81499;BME280;70904;52.360;5.198;2023-06-26T00:57:19;101251.22;;;22.22;61.55
81499;BME280;70904;52.360;5.198;2023-06-26T00:59:44;101256.41;;;22.49;58.14
81499;BME280;70904;52.360;5.198;2023-06-26T01:02:09;101257.66;;;22.60;57.33
81499;BME280;70904;52.360;5.198;2023-06-26T01:04:35;101259.91;;;22.76;57.14
81499;BME280;70904;52.360;5.198;2023-06-26T01:07:02;101268.03;;;22.72;57.24
81499;BME280;70904;52.360;5.198;2023-06-26T01:09:28;101263.47;;;22.76;56.59
81499;BME280;70904;52.360;5.198;2023-06-26T01:11:54;101265.56;;;22.79;56.51
81499;BME280;70904;52.360;5.198;2023-06-26T01:14:20;101265.13;;;22.77;56.54
81499;BME280;70904;52.360;5.198;2023-06-26T01:16:46;101273.53;;;22.72;56.87
81499;BME280;70904;52.360;5.198;2023-06-26T01:19:20;101265.94;;;22.60;56.01
81499;BME280;70904;52.360;5.198;2023-06-26T01:21:51;101282.50;;;22.60;56.23
81499;BME280;70904;52.360;5.198;2023-06-26T01:24:22;101283.00;;;22.36;56.77
81499;BME280;70904;52.360;5.198;2023-06-26T01:26:53;101282.50;;;22.17;57.42
81499;BME280;70904;52.360;5.198;2023-06-26T01:29:19;101287.38;;;22.03;58.39
81499;BME280;70904;52.360;5.198;2023-06-26T01:31:47;101291.22;;;21.84;59.95
81499;BME280;70904;52.360;5.198;2023-06-26T01:34:16;101286.03;;;21.83;59.49
81499;BME280;70904;52.360;5.198;2023-06-26T01:36:44;101283.78;;;21.76;59.82
81499;BME280;70904;52.360;5.198;2023-06-26T01:39:09;101297.69;;;21.71;60.05
81499;BME280;70904;52.360;5.198;2023-06-26T01:41:35;101289.41;;;21.62;60.70
81499;BME280;70904;52.360;5.198;2023-06-26T01:52:20;101279.38;;;21.26;62.63
81499;BME280;70904;52.360;5.198;2023-06-26T01:55:14;101284.19;;;21.12;63.11
81499;BME280;70904;52.360;5.198;2023-06-26T01:57:41;101273.75;;;21.00;63.91
81499;BME280;70904;52.360;5.198;2023-06-26T02:00:08;101275.50;;;20.96;64.10
81499;BME280;70904;52.360;5.198;2023-06-26T02:02:36;101276.75;;;20.90;64.57
81499;BME280;70904;52.360;5.198;2023-06-26T02:05:02;101287.25;;;20.79;65.05
81499;BME280;70904;52.360;5.198;2023-06-26T02:07:27;101293.19;;;20.72;65.29
81499;BME280;70904;52.360;5.198;2023-06-26T02:09:53;101297.50;;;20.65;65.94
81499;BME280;70904;52.360;5.198;2023-06-26T02:12:18;101292.22;;;20.55;66.31
81499;BME280;70904;52.360;5.198;2023-06-26T02:14:44;101296.81;;;20.45;66.28
81499;BME280;70904;52.360;5.198;2023-06-26T02:17:09;101303.09;;;20.37;66.57
81499;BME280;70904;52.360;5.198;2023-06-26T02:19:35;101309.22;;;20.34;67.24
81499;BME280;70904;52.360;5.198;2023-06-26T02:22:00;101295.38;;;20.25;67.78
81499;BME280;70904;52.360;5.198;2023-06-26T02:24:26;101296.63;;;20.19;68.00
81499;BME280;70904;52.360;5.198;2023-06-26T02:26:55;101287.69;;;20.14;68.59
81499;BME280;70904;52.360;5.198;2023-06-26T02:29:20;101290.72;;;20.12;68.79
81499;BME280;70904;52.360;5.198;2023-06-26T02:31:46;101298.97;;;20.12;68.82
81499;BME280;70904;52.360;5.198;2023-06-26T02:34:14;101310.59;;;20.09;69.18
81499;BME280;70904;52.360;5.198;2023-06-26T02:36:39;101300.41;;;20.09;69.55
81499;BME280;70904;52.360;5.198;2023-06-26T02:39:05;101293.44;;;20.03;69.49
81499;BME280;70904;52.360;5.198;2023-06-26T02:41:30;101295.03;;;20.04;69.92
81499;BME280;70904;52.360;5.198;2023-06-26T02:43:55;101302.78;;;20.02;69.82
81499;BME280;70904;52.360;5.198;2023-06-26T02:46:21;101303.91;;;20.01;69.84
81499;BME280;70904;52.360;5.198;2023-06-26T02:48:46;101306.44;;;19.98;70.15
81499;BME280;70904;52.360;5.198;2023-06-26T02:51:11;101303.41;;;19.99;69.86
81499;BME280;70904;52.360;5.198;2023-06-26T02:53:36;101305.84;;;20.01;69.76
81499;BME280;70904;52.360;5.198;2023-06-26T02:56:02;101317.44;;;19.98;69.92
81499;BME280;70904;52.360;5.198;2023-06-26T02:58:27;101316.94;;;19.96;70.11
81499;BME280;70904;52.360;5.198;2023-06-26T03:00:52;101313.50;;;19.90;70.23
81499;BME280;70904;52.360;5.198;2023-06-26T03:03:18;101316.03;;;19.86;70.11
81499;BME280;70904;52.360;5.198;2023-06-26T03:05:44;101316.25;;;19.90;69.89
81499;BME280;70904;52.360;5.198;2023-06-26T03:08:09;101311.66;;;19.85;69.96
81499;BME280;70904;52.360;5.198;2023-06-26T03:10:35;101324.72;;;19.80;70.35
81499;BME280;70904;52.360;5.198;2023-06-26T03:13:00;101319.50;;;19.78;70.78
81499;BME280;70904;52.360;5.198;2023-06-26T03:15:26;101314.22;;;19.68;70.50
81499;BME280;70904;52.360;5.198;2023-06-26T03:17:51;101318.69;;;19.64;70.80
81499;BME280;70904;52.360;5.198;2023-06-26T03:20:16;101323.47;;;19.58;71.05
81499;BME280;70904;52.360;5.198;2023-06-26T03:22:42;101330.78;;;19.49;71.25
81499;BME280;70904;52.360;5.198;2023-06-26T03:25:07;101327.63;;;19.42;71.36
81499;BME280;70904;52.360;5.198;2023-06-26T03:27:32;101340.03;;;19.39;71.67
81499;BME280;70904;52.360;5.198;2023-06-26T03:29:58;101367.03;;;19.32;72.19
81499;BME280;70904;52.360;5.198;2023-06-26T03:32:24;101372.13;;;19.25;72.33
81499;BME280;70904;52.360;5.198;2023-06-26T03:34:50;101370.91;;;19.31;72.11
81499;BME280;70904;52.360;5.198;2023-06-26T03:37:15;101362.59;;;19.36;71.74
81499;BME280;70904;52.360;5.198;2023-06-26T03:39:41;101360.97;;;19.35;72.01
81499;BME280;70904;52.360;5.198;2023-06-26T03:42:07;101359.44;;;19.29;72.46
81499;BME280;70904;52.360;5.198;2023-06-26T03:44:32;101367.16;;;19.27;72.85
81499;BME280;70904;52.360;5.198;2023-06-26T03:46:57;101372.06;;;19.30;72.65
81499;BME280;70904;52.360;5.198;2023-06-26T03:49:23;101367.97;;;19.28;72.79
81499;BME280;70904;52.360;5.198;2023-06-26T03:51:48;101367.75;;;19.24;72.05
81499;BME280;70904;52.360;5.198;2023-06-26T03:54:14;101376.28;;;19.22;71.97
81499;BME280;70904;52.360;5.198;2023-06-26T03:56:39;101372.63;;;19.27;72.25
81499;BME280;70904;52.360;5.198;2023-06-26T03:59:05;101381.38;;;19.29;72.01
81499;BME280;70904;52.360;5.198;2023-06-26T04:01:30;101379.16;;;19.31;71.46
81499;BME280;70904;52.360;5.198;2023-06-26T04:03:55;101388.72;;;19.34;70.74
81499;BME280;70904;52.360;5.198;2023-06-26T04:06:21;101389.63;;;19.29;71.15
81499;BME280;70904;52.360;5.198;2023-06-26T04:08:46;101384.94;;;19.30;70.68
81499;BME280;70904;52.360;5.198;2023-06-26T04:11:11;101390.22;;;19.26;71.09
81499;BME280;70904;52.360;5.198;2023-06-26T04:13:37;101395.91;;;19.16;71.31
81499;BME280;70904;52.360;5.198;2023-06-26T04:16:03;101401.88;;;19.18;70.35
81499;BME280;70904;52.360;5.198;2023-06-26T04:18:29;101400.56;;;19.15;70.83
81499;BME280;70904;52.360;5.198;2023-06-26T04:21:08;101402.22;;;19.16;70.58
81499;BME280;70904;52.360;5.198;2023-06-26T04:23:34;101406.66;;;19.12;70.72
81499;BME280;70904;52.360;5.198;2023-06-26T04:26:00;101410.31;;;19.08;70.63
81499;BME280;70904;52.360;5.198;2023-06-26T04:28:26;101416.41;;;19.04;71.16
81499;BME280;70904;52.360;5.198;2023-06-26T04:30:51;101430.78;;;18.96;71.43
81499;BME280;70904;52.360;5.198;2023-06-26T04:33:16;101438.44;;;18.99;71.38
81499;BME280;70904;52.360;5.198;2023-06-26T04:35:42;101437.69;;;18.94;71.59
81499;BME280;70904;52.360;5.198;2023-06-26T04:38:09;101440.59;;;18.83;72.27
81499;BME280;70904;52.360;5.198;2023-06-26T04:40:35;101434.31;;;18.83;72.08
81499;BME280;70904;52.360;5.198;2023-06-26T04:43:00;101442.53;;;18.83;72.08
81499;BME280;70904;52.360;5.198;2023-06-26T04:45:26;101448.13;;;18.92;71.87
81499;BME280;70904;52.360;5.198;2023-06-26T04:47:51;101451.03;;;19.00;70.92
81499;BME280;70904;52.360;5.198;2023-06-26T04:50:16;101448.19;;;19.06;71.34
81499;BME280;70904;52.360;5.198;2023-06-26T04:52:44;101458.00;;;19.12;70.03
81499;BME280;70904;52.360;5.198;2023-06-26T04:55:09;101460.00;;;19.06;69.93
81499;BME280;70904;52.360;5.198;2023-06-26T04:57:34;101456.44;;;19.06;70.32
81499;BME280;70904;52.360;5.198;2023-06-26T05:00:00;101459.56;;;18.99;70.86
81499;BME280;70904;52.360;5.198;2023-06-26T05:02:25;101465.78;;;19.04;70.59
81499;BME280;70904;52.360;5.198;2023-06-26T05:04:52;101459.31;;;19.14;69.56
81499;BME280;70904;52.360;5.198;2023-06-26T05:07:17;101462.84;;;19.34;69.49
81499;BME280;70904;52.360;5.198;2023-06-26T05:09:42;101462.56;;;19.68;67.86
81499;BME280;70904;52.360;5.198;2023-06-26T05:12:08;101462.78;;;19.99;67.03
81499;BME280;70904;52.360;5.198;2023-06-26T05:14:33;101464.81;;;19.94;65.93
81499;BME280;70904;52.360;5.198;2023-06-26T05:16:59;101466.88;;;20.16;64.72
81499;BME280;70904;52.360;5.198;2023-06-26T05:19:24;101472.25;;;20.35;64.15
81499;BME280;70904;52.360;5.198;2023-06-26T05:21:50;101476.31;;;20.51;62.78
81499;BME280;70904;52.360;5.198;2023-06-26T05:24:17;101477.53;;;20.72;62.50
81499;BME280;70904;52.360;5.198;2023-06-26T05:26:44;101476.22;;;20.92;61.84
81499;BME280;70904;52.360;5.198;2023-06-26T05:29:10;101476.94;;;20.98;60.78
81499;BME280;70904;52.360;5.198;2023-06-26T05:31:40;101484.88;;;21.00;61.45
81499;BME280;70904;52.360;5.198;2023-06-26T05:34:07;101485.31;;;20.93;61.73
81499;BME280;70904;52.360;5.198;2023-06-26T05:36:34;101487.34;;;21.24;59.53
81499;BME280;70904;52.360;5.198;2023-06-26T05:39:00;101496.22;;;21.21;60.26
81499;BME280;70904;52.360;5.198;2023-06-26T05:41:26;101497.91;;;21.08;59.95
81499;BME280;70904;52.360;5.198;2023-06-26T05:43:51;101502.16;;;21.36;58.97
81499;BME280;70904;52.360;5.198;2023-06-26T05:46:19;101499.50;;;21.45;58.89
81499;BME280;70904;52.360;5.198;2023-06-26T05:48:44;101506.16;;;21.30;59.60
81499;BME280;70904;52.360;5.198;2023-06-26T05:51:10;101525.53;;;21.62;58.63
81499;BME280;70904;52.360;5.198;2023-06-26T05:53:35;101524.66;;;21.52;58.34
81499;BME280;70904;52.360;5.198;2023-06-26T05:56:01;101526.41;;;21.48;58.25
81499;BME280;70904;52.360;5.198;2023-06-26T05:58:27;101532.06;;;21.43;58.81
81499;BME280;70904;52.360;5.198;2023-06-26T06:00:55;101532.59;;;21.76;58.61
81499;BME280;70904;52.360;5.198;2023-06-26T06:03:21;101535.44;;;21.94;58.00
81499;BME280;70904;52.360;5.198;2023-06-26T06:05:46;101546.38;;;22.08;57.13
81499;BME280;70904;52.360;5.198;2023-06-26T06:08:12;101540.16;;;22.25;56.96
81499;BME280;70904;52.360;5.198;2023-06-26T06:10:37;101550.84;;;22.66;56.01
81499;BME280;70904;52.360;5.198;2023-06-26T06:13:03;101552.44;;;22.67;54.04
81499;BME280;70904;52.360;5.198;2023-06-26T06:15:28;101565.66;;;22.39;55.84
81499;BME280;70904;52.360;5.198;2023-06-26T06:17:53;101561.09;;;22.83;53.70
81499;BME280;70904;52.360;5.198;2023-06-26T06:20:19;101561.66;;;23.11;53.82
81499;BME280;70904;52.360;5.198;2023-06-26T06:22:47;101559.66;;;22.94;53.99
81499;BME280;70904;52.360;5.198;2023-06-26T06:25:14;101565.28;;;22.63;55.91
81499;BME280;70904;52.360;5.198;2023-06-26T06:27:39;101568.56;;;22.34;56.90
81499;BME280;70904;52.360;5.198;2023-06-26T06:30:05;101574.19;;;22.60;56.66
81499;BME280;70904;52.360;5.198;2023-06-26T06:32:30;101590.31;;;22.84;55.79
81499;BME280;70904;52.360;5.198;2023-06-26T06:34:56;101598.13;;;22.33;57.01
81499;BME280;70904;52.360;5.198;2023-06-26T06:37:22;101597.47;;;21.83;58.42
81499;BME280;70904;52.360;5.198;2023-06-26T06:39:47;101606.91;;;22.13;57.63
81499;BME280;70904;52.360;5.198;2023-06-26T06:42:13;101607.03;;;22.30;56.64
81499;BME280;70904;52.360;5.198;2023-06-26T06:44:38;101612.69;;;21.80;58.62
81499;BME280;70904;52.360;5.198;2023-06-26T06:47:03;101612.47;;;22.44;56.80
81499;BME280;70904;52.360;5.198;2023-06-26T06:49:29;101598.09;;;22.73;56.17
81499;BME280;70904;52.360;5.198;2023-06-26T06:51:54;101614.88;;;22.14;58.91
81499;BME280;70904;52.360;5.198;2023-06-26T06:54:19;101617.44;;;21.66;61.05
81499;BME280;70904;52.360;5.198;2023-06-26T06:56:45;101621.31;;;21.42;60.72
81499;BME280;70904;52.360;5.198;2023-06-26T06:59:10;101625.66;;;21.80;59.32
81499;BME280;70904;52.360;5.198;2023-06-26T07:01:35;101627.91;;;22.00;58.63
81499;BME280;70904;52.360;5.198;2023-06-26T07:04:01;101633.22;;;21.96;57.62
81499;BME280;70904;52.360;5.198;2023-06-26T07:06:29;101633.34;;;22.76;55.47
81499;BME280;70904;52.360;5.198;2023-06-26T07:08:54;101640.34;;;22.91;55.06
81499;BME280;70904;52.360;5.198;2023-06-26T07:11:22;101638.16;;;22.62;56.01
81499;BME280;70904;52.360;5.198;2023-06-26T07:13:47;101635.09;;;21.87;57.29
81499;BME280;70904;52.360;5.198;2023-06-26T07:16:13;101652.38;;;21.56;59.09
81499;BME280;70904;52.360;5.198;2023-06-26T07:18:40;101627.38;;;21.17;59.97
81499;BME280;70904;52.360;5.198;2023-06-26T07:21:05;101645.31;;;22.32;57.54
81499;BME280;70904;52.360;5.198;2023-06-26T07:23:30;101651.81;;;22.67;56.27
81499;BME280;70904;52.360;5.198;2023-06-26T07:25:56;101649.84;;;22.68;55.15
81499;BME280;70904;52.360;5.198;2023-06-26T07:28:21;101631.03;;;23.18;54.15
81499;BME280;70904;52.360;5.198;2023-06-26T07:30:46;101646.03;;;23.43;54.13
81499;BME280;70904;52.360;5.198;2023-06-26T07:33:12;101657.19;;;23.21;54.89
81499;BME280;70904;52.360;5.198;2023-06-26T07:35:37;101658.69;;;23.53;53.42
81499;BME280;70904;52.360;5.198;2023-06-26T07:38:06;101669.44;;;23.72;52.67
81499;BME280;70904;52.360;5.198;2023-06-26T07:40:31;101662.75;;;23.30;53.51
81499;BME280;70904;52.360;5.198;2023-06-26T07:42:56;101664.88;;;23.41;54.03
81499;BME280;70904;52.360;5.198;2023-06-26T07:45:23;101667.97;;;24.01;52.49
81499;BME280;70904;52.360;5.198;2023-06-26T07:47:48;101667.91;;;23.31;53.43
81499;BME280;70904;52.360;5.198;2023-06-26T07:50:14;101664.97;;;24.79;50.79
81499;BME280;70904;52.360;5.198;2023-06-26T07:52:44;101684.06;;;23.90;51.72
81499;BME280;70904;52.360;5.198;2023-06-26T07:55:10;101677.56;;;23.60;52.99
81499;BME280;70904;52.360;5.198;2023-06-26T07:57:35;101676.03;;;24.88;49.71
81499;BME280;70904;52.360;5.198;2023-06-26T08:00:00;101695.13;;;23.73;53.01
81499;BME280;70904;52.360;5.198;2023-06-26T08:02:26;101680.88;;;22.33;56.29
81499;BME280;70904;52.360;5.198;2023-06-26T08:04:51;101680.75;;;22.16;57.67
81499;BME280;70904;52.360;5.198;2023-06-26T08:07:16;101682.22;;;22.45;56.44
81499;BME280;70904;52.360;5.198;2023-06-26T08:09:42;101683.66;;;22.19;56.91
81499;BME280;70904;52.360;5.198;2023-06-26T08:12:07;101690.75;;;21.67;58.41
81499;BME280;70904;52.360;5.198;2023-06-26T08:14:32;101691.34;;;22.23;56.97
81499;BME280;70904;52.360;5.198;2023-06-26T08:16:58;101697.66;;;22.86;54.03
81499;BME280;70904;52.360;5.198;2023-06-26T08:19:24;101708.00;;;21.95;56.00
81499;BME280;70904;52.360;5.198;2023-06-26T08:21:51;101701.31;;;23.78;52.10
81499;BME280;70904;52.360;5.198;2023-06-26T08:24:16;101709.41;;;24.36;51.65
81499;BME280;70904;52.360;5.198;2023-06-26T08:26:44;101714.28;;;23.69;52.78
81499;BME280;70904;52.360;5.198;2023-06-26T08:29:13;101723.72;;;23.68;51.03
81499;BME280;70904;52.360;5.198;2023-06-26T08:31:40;101718.19;;;23.51;52.46
81499;BME280;70904;52.360;5.198;2023-06-26T08:34:05;101724.41;;;23.74;51.81
81499;BME280;70904;52.360;5.198;2023-06-26T08:36:31;101733.31;;;23.53;52.38
81499;BME280;70904;52.360;5.198;2023-06-26T08:38:57;101730.91;;;23.95;50.71
81499;BME280;70904;52.360;5.198;2023-06-26T08:41:23;101726.84;;;23.09;52.53
81499;BME280;70904;52.360;5.198;2023-06-26T08:43:48;101743.44;;;24.19;49.11
81499;BME280;70904;52.360;5.198;2023-06-26T08:46:16;101736.88;;;24.49;48.65
81499;BME280;70904;52.360;5.198;2023-06-26T08:48:45;101740.41;;;25.14;46.71
81499;BME280;70904;52.360;5.198;2023-06-26T08:51:16;101732.59;;;26.09;44.08
81499;BME280;70904;52.360;5.198;2023-06-26T08:53:50;101741.16;;;25.53;46.03
81499;BME280;70904;52.360;5.198;2023-06-26T08:56:17;101752.31;;;24.68;47.22
81499;BME280;70904;52.360;5.198;2023-06-26T08:58:44;101761.81;;;24.23;48.02
81499;BME280;70904;52.360;5.198;2023-06-26T09:01:09;101742.59;;;25.00;46.29
81499;BME280;70904;52.360;5.198;2023-06-26T09:03:35;101754.19;;;25.32;46.32
81499;BME280;70904;52.360;5.198;2023-06-26T09:06:01;101762.84;;;25.81;43.31
81499;BME280;70904;52.360;5.198;2023-06-26T09:08:26;101760.63;;;26.95;42.30
81499;BME280;70904;52.360;5.198;2023-06-26T09:10:52;101762.38;;;25.28;45.12
81499;BME280;70904;52.360;5.198;2023-06-26T09:13:18;101775.47;;;24.46;46.73
81499;BME280;70904;52.360;5.198;2023-06-26T09:15:44;101768.00;;;25.70;44.25
81499;BME280;70904;52.360;5.198;2023-06-26T09:18:10;101770.78;;;25.41;44.43
81499;BME280;70904;52.360;5.198;2023-06-26T09:20:36;101784.56;;;25.11;45.76
81499;BME280;70904;52.360;5.198;2023-06-26T09:23:01;101787.38;;;24.29;46.56
81499;BME280;70904;52.360;5.198;2023-06-26T09:25:30;101787.59;;;24.97;45.00
81499;BME280;70904;52.360;5.198;2023-06-26T09:27:56;101769.47;;;26.10;42.42
81499;BME280;70904;52.360;5.198;2023-06-26T09:30:22;101779.69;;;26.39;40.98
81499;BME280;70904;52.360;5.198;2023-06-26T09:32:47;101789.59;;;26.61;40.24
81499;BME280;70904;52.360;5.198;2023-06-26T09:35:13;101784.06;;;26.73;39.84
81499;BME280;70904;52.360;5.198;2023-06-26T09:37:38;101796.78;;;27.32;39.50
81499;BME280;70904;52.360;5.198;2023-06-26T09:40:04;101801.66;;;27.48;37.60
81499;BME280;70904;52.360;5.198;2023-06-26T09:42:30;101793.03;;;27.16;38.39
81499;BME280;70904;52.360;5.198;2023-06-26T09:44:56;101802.88;;;27.87;36.98
81499;BME280;70904;52.360;5.198;2023-06-26T09:47:22;101806.38;;;27.72;37.29
81499;BME280;70904;52.360;5.198;2023-06-26T09:49:48;101810.56;;;26.71;39.11
81499;BME280;70904;52.360;5.198;2023-06-26T09:52:15;101809.47;;;26.30;40.07
81499;BME280;70904;52.360;5.198;2023-06-26T09:54:42;101813.63;;;26.90;37.94
81499;BME280;70904;52.360;5.198;2023-06-26T09:57:09;101823.38;;;27.09;36.69
81499;BME280;70904;52.360;5.198;2023-06-26T09:59:35;101817.78;;;26.84;36.62
81499;BME280;70904;52.360;5.198;2023-06-26T10:02:01;101817.72;;;27.91;34.36
81499;BME280;70904;52.360;5.198;2023-06-26T10:04:27;101829.91;;;27.86;33.60
81499;BME280;70904;52.360;5.198;2023-06-26T10:06:54;101832.41;;;28.44;32.35
81499;BME280;70904;52.360;5.198;2023-06-26T10:09:21;101842.19;;;27.36;33.25
81499;BME280;70904;52.360;5.198;2023-06-26T10:11:53;101833.47;;;27.13;34.43
81499;BME280;70904;52.360;5.198;2023-06-26T10:14:21;101843.00;;;26.79;34.12
81499;BME280;70904;52.360;5.198;2023-06-26T10:16:49;101841.78;;;26.34;35.33
81499;BME280;70904;52.360;5.198;2023-06-26T10:19:18;101832.97;;;26.99;34.15
81499;BME280;70904;52.360;5.198;2023-06-26T10:21:51;101851.56;;;27.32;33.58
81499;BME280;70904;52.360;5.198;2023-06-26T10:24:17;101858.16;;;27.27;33.69
81499;BME280;70904;52.360;5.198;2023-06-26T10:26:45;101852.72;;;26.10;34.43
81499;BME280;70904;52.360;5.198;2023-06-26T10:29:13;101866.44;;;26.69;34.07
81499;BME280;70904;52.360;5.198;2023-06-26T10:31:43;101854.69;;;26.72;34.18
81499;BME280;70904;52.360;5.198;2023-06-26T10:34:11;101848.94;;;27.02;34.34
81499;BME280;70904;52.360;5.198;2023-06-26T10:36:36;101844.16;;;27.23;33.03
81499;BME280;70904;52.360;5.198;2023-06-26T10:39:04;101854.81;;;26.88;33.67
81499;BME280;70904;52.360;5.198;2023-06-26T10:41:40;101861.31;;;26.59;35.18
81499;BME280;70904;52.360;5.198;2023-06-26T10:44:13;101844.38;;;26.73;35.25
81499;BME280;70904;52.360;5.198;2023-06-26T10:46:48;101853.53;;;27.56;33.68
81499;BME280;70904;52.360;5.198;2023-06-26T10:49:14;101869.44;;;26.97;34.76
81499;BME280;70904;52.360;5.198;2023-06-26T10:51:46;101856.50;;;26.68;34.66
81499;BME280;70904;52.360;5.198;2023-06-26T10:54:15;101863.47;;;26.74;34.24
81499;BME280;70904;52.360;5.198;2023-06-26T10:56:48;101865.25;;;26.37;35.66
81499;BME280;70904;52.360;5.198;2023-06-26T10:59:22;101881.41;;;27.10;35.41
81499;BME280;70904;52.360;5.198;2023-06-26T11:02:01;101879.47;;;27.35;33.86
81499;BME280;70904;52.360;5.198;2023-06-26T11:07:22;101894.41;;;28.29;33.52
81499;BME280;70904;52.360;5.198;2023-06-26T11:17:35;101903.88;;;28.53;32.96
81499;BME280;70904;52.360;5.198;2023-06-26T11:20:02;101908.34;;;28.17;33.19
81499;BME280;70904;52.360;5.198;2023-06-26T11:22:30;101905.91;;;27.41;34.13
81499;BME280;70904;52.360;5.198;2023-06-26T11:24:59;101903.75;;;25.02;38.34
81499;BME280;70904;52.360;5.198;2023-06-26T11:27:24;101904.13;;;25.86;36.09
81499;BME280;70904;52.360;5.198;2023-06-26T11:29:50;101906.66;;;26.72;34.77
81499;BME280;70904;52.360;5.198;2023-06-26T11:32:15;101898.31;;;27.88;33.03
81499;BME280;70904;52.360;5.198;2023-06-26T11:34:40;101902.63;;;26.81;35.10
81499;BME280;70904;52.360;5.198;2023-06-26T11:37:08;101918.56;;;25.62;36.77
81499;BME280;70904;52.360;5.198;2023-06-26T11:39:33;101928.94;;;25.35;36.23
81499;BME280;70904;52.360;5.198;2023-06-26T11:42:00;101932.53;;;25.36;37.56
81499;BME280;70904;52.360;5.198;2023-06-26T11:44:29;101933.25;;;26.01;36.64
81499;BME280;70904;52.360;5.198;2023-06-26T11:46:56;101937.59;;;26.61;35.20
81499;BME280;70904;52.360;5.198;2023-06-26T11:49:22;101962.78;;;26.06;36.60
81499;BME280;70904;52.360;5.198;2023-06-26T11:51:50;101958.94;;;25.33;38.67
81499;BME280;70904;52.360;5.198;2023-06-26T11:54:23;101947.03;;;26.18;37.82
81499;BME280;70904;52.360;5.198;2023-06-26T11:56:57;101939.31;;;26.24;36.82
81499;BME280;70904;52.360;5.198;2023-06-26T11:59:22;101958.53;;;26.50;35.70
81499;BME280;70904;52.360;5.198;2023-06-26T12:01:50;101968.44;;;27.35;35.56
81499;BME280;70904;52.360;5.198;2023-06-26T12:04:17;101977.88;;;25.78;39.94
81499;BME280;70904;52.360;5.198;2023-06-26T12:06:47;101959.03;;;26.94;36.95
81499;BME280;70904;52.360;5.198;2023-06-26T12:09:13;101966.00;;;27.00;37.34
81499;BME280;70904;52.360;5.198;2023-06-26T12:11:41;101967.53;;;27.31;35.71
81499;BME280;70904;52.360;5.198;2023-06-26T12:14:08;101977.03;;;27.88;35.34
81499;BME280;70904;52.360;5.198;2023-06-26T12:16:35;101978.50;;;25.93;37.87
81499;BME280;70904;52.360;5.198;2023-06-26T12:19:01;101976.09;;;24.75;40.32
81499;BME280;70904;52.360;5.198;2023-06-26T12:24:01;101988.88;;;24.27;42.29
81499;BME280;70904;52.360;5.198;2023-06-26T12:26:27;101986.94;;;23.79;43.44
81499;BME280;70904;52.360;5.198;2023-06-26T12:29:01;101992.53;;;24.62;42.47
81499;BME280;70904;52.360;5.198;2023-06-26T12:31:26;101996.78;;;25.29;40.24
81499;BME280;70904;52.360;5.198;2023-06-26T12:33:52;101991.31;;;26.36;39.10
81499;BME280;70904;52.360;5.198;2023-06-26T12:36:18;101983.34;;;26.97;35.50
81499;BME280;70904;52.360;5.198;2023-06-26T12:38:45;101990.63;;;26.18;37.80
81499;BME280;70904;52.360;5.198;2023-06-26T12:41:15;101995.38;;;26.38;37.87
81499;BME280;70904;52.360;5.198;2023-06-26T12:43:41;102003.22;;;26.87;36.48
81499;BME280;70904;52.360;5.198;2023-06-26T12:46:07;102010.88;;;26.10;37.72
81499;BME280;70904;52.360;5.198;2023-06-26T12:48:43;102011.03;;;26.13;37.66
81499;BME280;70904;52.360;5.198;2023-06-26T12:51:11;102010.81;;;25.24;40.10
81499;BME280;70904;52.360;5.198;2023-06-26T12:53:37;101999.06;;;26.22;39.24
81499;BME280;70904;52.360;5.198;2023-06-26T12:56:05;102015.06;;;25.86;38.95
81499;BME280;70904;52.360;5.198;2023-06-26T12:58:31;102009.63;;;26.37;38.11
81499;BME280;70904;52.360;5.198;2023-06-26T13:00:56;102016.78;;;26.08;39.20
81499;BME280;70904;52.360;5.198;2023-06-26T13:03:23;102010.69;;;26.74;38.17
81499;BME280;70904;52.360;5.198;2023-06-26T13:05:48;102015.06;;;25.22;39.24
81499;BME280;70904;52.360;5.198;2023-06-26T13:08:13;102020.56;;;26.04;39.57